Time;durP1;ratioP1;P1;durP2;ratioP2;P2;SDS_P1;SDS_P2;PMS_P1;PMS_P2;Temp;Humidity;BMP_temperature;BMP_pressure;BME280_temperature;BME280_humidity;BME280_pressure;Samples;Min_cycle;Max_cycle;Signal;HPM_P1;HPM_P2
2023/03/19 00:01:06;;;;;;;14.57;9.03;;;11.70;1.00;;;;;;5010310;28;20467;-74
2023/03/19 00:03:33;;;;;;;14.40;8.57;;;11.80;1.00;;;;;;5010550;28;20472;-74
2023/03/19 00:05:58;;;;;;;13.87;8.70;;;11.90;1.00;;;;;;5010373;28;20472;-74
2023/03/19 00:08:24;;;;;;;23.73;10.50;;;11.90;1.00;;;;;;5009280;28;20777;-74
2023/03/19 00:10:50;;;;;;;17.50;9.70;;;11.90;1.00;;;;;;5011192;28;20185;-74
2023/03/19 00:13:16;;;;;;;13.53;9.07;;;11.70;1.00;;;;;;5068066;22;20452;-71
2023/03/19 00:15:42;;;;;;;15.90;9.07;;;11.90;1.00;;;;;;5028141;28;20431;-72
2023/03/19 00:18:07;;;;;;;13.33;7.80;;;11.90;1.00;;;;;;5028633;28;20312;-70
2023/03/19 00:20:33;;;;;;;15.80;8.43;;;11.80;1.00;;;;;;5030256;28;20182;-71
2023/03/19 00:22:59;;;;;;;10.67;7.50;;;11.80;1.00;;;;;;5030177;28;20563;-71
2023/03/19 00:25:25;;;;;;;11.70;7.70;;;11.70;1.00;;;;;;5028978;28;20182;-71
2023/03/19 00:27:51;;;;;;;9.80;7.47;;;11.70;1.00;;;;;;5029779;28;20210;-72
2023/03/19 00:30:17;;;;;;;10.47;7.53;;;11.70;1.00;;;;;;5023287;28;20190;-71
2023/03/19 00:32:43;;;;;;;13.70;7.50;;;11.70;1.00;;;;;;5029900;28;20444;-72
2023/03/19 00:35:09;;;;;;;12.43;7.67;;;11.60;1.00;;;;;;5028517;28;20213;-71
2023/03/19 00:37:36;;;;;;;11.97;6.97;;;11.70;1.00;;;;;;5026270;28;20203;-71
2023/03/19 00:40:03;;;;;;;9.33;6.93;;;11.70;1.00;;;;;;5029435;28;20475;-72
2023/03/19 00:42:29;;;;;;;15.83;8.10;;;11.70;1.00;;;;;;5028903;28;20472;-71
2023/03/19 00:44:55;;;;;;;13.03;7.50;;;11.50;1.00;;;;;;5028536;28;20456;-71
2023/03/19 00:47:21;;;;;;;17.70;8.50;;;11.30;1.00;;;;;;5028994;28;20495;-71
2023/03/19 00:49:47;;;;;;;11.10;7.40;;;11.10;1.00;;;;;;5030137;28;20516;-71
2023/03/19 00:52:12;;;;;;;8.83;7.33;;;11.00;1.00;;;;;;5029538;28;20225;-70
2023/03/19 00:54:38;;;;;;;10.80;7.73;;;10.90;1.00;;;;;;5029485;28;20565;-71
2023/03/19 00:57:04;;;;;;;10.97;6.67;;;10.80;1.00;;;;;;5028474;28;20599;-71
2023/03/19 00:59:30;;;;;;;10.33;6.43;;;10.70;1.00;;;;;;5028666;28;20649;-71
2023/03/19 01:01:55;;;;;;;9.30;6.20;;;10.70;1.00;;;;;;5022874;28;20251;-71
2023/03/19 01:04:22;;;;;;;14.20;6.77;;;10.80;1.00;;;;;;5029133;28;20202;-73
2023/03/19 01:06:47;;;;;;;12.40;6.50;;;10.90;1.00;;;;;;5027121;28;20699;-73
2023/03/19 01:09:13;;;;;;;11.50;7.50;;;11.00;1.00;;;;;;5027902;28;20495;-74
2023/03/19 01:11:39;;;;;;;12.83;7.63;;;11.10;1.00;;;;;;5027734;28;20216;-73
2023/03/19 01:14:05;;;;;;;9.70;6.47;;;11.20;1.00;;;;;;5029580;28;20759;-74
2023/03/19 01:16:31;;;;;;;10.50;6.77;;;11.30;1.00;;;;;;5028134;28;20185;-74
2023/03/19 01:18:57;;;;;;;14.17;7.63;;;11.20;1.00;;;;;;5029778;28;20435;-74
2023/03/19 01:21:22;;;;;;;10.37;7.70;;;11.10;1.00;;;;;;5027266;28;20269;-73
2023/03/19 01:23:50;;;;;;;10.10;6.70;;;11.00;1.00;;;;;;5029599;28;21035;-73
2023/03/19 01:26:16;;;;;;;9.07;7.00;;;11.00;1.00;;;;;;5028360;28;20225;-74
2023/03/19 01:28:42;;;;;;;9.63;6.30;;;11.10;1.00;;;;;;5024824;28;20464;-73
2023/03/19 01:31:08;;;;;;;10.47;6.80;;;11.10;1.00;;;;;;5021703;28;20474;-74
2023/03/19 01:33:34;;;;;;;12.47;7.57;;;10.90;1.00;;;;;;5026032;28;20955;-73
2023/03/19 01:36:02;;;;;;;11.37;7.73;;;10.70;1.00;;;;;;5027374;28;20444;-74
2023/03/19 01:38:28;;;;;;;12.30;6.43;;;10.50;1.00;;;;;;5027199;28;20209;-75
2023/03/19 01:40:54;;;;;;;10.00;6.30;;;10.50;1.00;;;;;;5027323;28;20854;-74
2023/03/19 01:43:19;;;;;;;12.80;6.57;;;10.50;1.00;;;;;;5027910;28;20209;-70
2023/03/19 01:45:46;;;;;;;7.73;6.30;;;10.50;1.00;;;;;;5028622;28;20185;-76
2023/03/19 01:48:26;;;;;;;9.33;6.83;;;10.60;1.00;;;;;;5027395;28;20174;-74
2023/03/19 01:50:54;;;;;;;8.93;6.80;;;10.70;1.00;;;;;;5028941;28;20411;-74
2023/03/19 01:53:26;;;;;;;10.67;6.77;;;10.70;1.00;;;;;;5029225;28;20539;-73
2023/03/19 01:55:57;;;;;;;11.57;7.63;;;10.70;1.00;;;;;;5027620;28;20447;-74
2023/03/19 01:58:22;;;;;;;14.07;7.20;;;10.80;1.00;;;;;;5028006;28;20458;-73
2023/03/19 02:00:48;;;;;;;10.27;7.63;;;10.80;1.00;;;;;;5026623;28;20527;-74
2023/03/19 02:03:14;;;;;;;10.23;7.60;;;10.70;1.00;;;;;;5027885;28;20220;-73
2023/03/19 02:05:42;;;;;;;9.93;6.20;;;10.70;1.00;;;;;;5027589;28;21412;-74
2023/03/19 02:08:12;;;;;;;10.23;6.70;;;10.70;1.00;;;;;;5026135;28;20309;-74
2023/03/19 02:10:39;;;;;;;10.80;6.37;;;10.80;1.00;;;;;;5026666;28;20448;-74
2023/03/19 02:13:05;;;;;;;10.47;6.80;;;10.90;1.00;;;;;;5027798;28;20440;-73
2023/03/19 02:15:31;;;;;;;9.50;7.03;;;10.90;1.00;;;;;;5026352;28;20440;-73
2023/03/19 02:17:57;;;;;;;10.47;7.23;;;10.90;1.00;;;;;;5026420;28;20192;-74
2023/03/19 02:20:57;;;;;;;10.13;6.70;;;11.00;1.00;;;;;;5028297;28;20421;-73
2023/03/19 02:23:41;;;;;;;9.23;6.40;;;11.00;1.00;;;;;;5026797;28;20726;-71
2023/03/19 02:26:13;;;;;;;9.37;6.80;;;11.00;1.00;;;;;;5027858;28;20550;-73
2023/03/19 02:28:42;;;;;;;9.27;7.13;;;11.10;1.00;;;;;;5026454;28;20424;-73
2023/03/19 02:31:08;;;;;;;9.93;7.17;;;11.00;1.00;;;;;;5022702;28;20436;-73
2023/03/19 02:33:34;;;;;;;9.87;6.70;;;10.90;1.00;;;;;;5025058;28;20492;-73
2023/03/19 02:36:02;;;;;;;9.23;6.23;;;10.90;1.00;;;;;;5028102;28;20451;-73
2023/03/19 02:38:31;;;;;;;11.53;6.50;;;10.90;1.00;;;;;;5025625;28;20200;-73
2023/03/19 02:41:03;;;;;;;9.33;5.90;;;10.90;1.00;;;;;;5027502;28;20448;-73
2023/03/19 02:43:30;;;;;;;7.73;5.33;;;11.10;1.00;;;;;;5020042;28;20781;-73
2023/03/19 02:45:57;;;;;;;12.80;5.70;;;11.00;1.00;;;;;;5026018;28;20440;-74
2023/03/19 02:48:23;;;;;;;6.70;4.60;;;11.00;1.00;;;;;;5043689;28;20852;-71
2023/03/19 02:50:49;;;;;;;10.00;5.50;;;11.10;1.00;;;;;;5029665;28;20436;-73
2023/03/19 02:53:14;;;;;;;5.33;4.63;;;11.20;1.00;;;;;;5031733;28;20205;-73
2023/03/19 02:55:41;;;;;;;7.53;4.90;;;11.20;1.00;;;;;;5031192;28;20259;-74
2023/03/19 02:58:06;;;;;;;9.10;5.33;;;11.30;1.00;;;;;;5031277;28;20543;-73
2023/03/19 03:00:32;;;;;;;8.00;5.20;;;11.30;1.00;;;;;;5030617;28;20440;-75
2023/03/19 03:02:58;;;;;;;5.60;4.50;;;11.40;1.00;;;;;;5031213;28;20185;-73
2023/03/19 03:05:23;;;;;;;7.47;4.80;;;11.40;1.00;;;;;;5028370;28;20181;-73
2023/03/19 03:07:49;;;;;;;6.13;4.77;;;11.50;1.00;;;;;;5022229;28;20272;-74
2023/03/19 03:10:15;;;;;;;14.57;5.17;;;11.50;1.00;;;;;;5031853;28;20648;-73
2023/03/19 03:12:41;;;;;;;9.17;4.93;;;11.70;1.00;;;;;;5031174;28;20185;-74
2023/03/19 03:15:07;;;;;;;9.40;4.80;;;11.70;1.00;;;;;;5031551;28;20973;-74
2023/03/19 03:17:36;;;;;;;10.73;5.60;;;11.70;1.00;;;;;;5030545;28;20443;-74
2023/03/19 03:20:03;;;;;;;8.90;5.60;;;11.60;1.00;;;;;;5030028;28;20178;-74
2023/03/19 03:22:29;;;;;;;7.80;4.80;;;11.60;1.00;;;;;;5033270;28;20483;-75
2023/03/19 03:24:55;;;;;;;10.23;5.20;;;11.60;1.00;;;;;;5031527;28;20456;-74
2023/03/19 03:27:20;;;;;;;9.13;5.30;;;11.60;1.00;;;;;;5030509;28;20276;-76
2023/03/19 03:29:46;;;;;;;5.83;4.83;;;11.60;1.00;;;;;;5021937;28;20186;-74
2023/03/19 03:32:12;;;;;;;6.97;5.10;;;11.60;1.00;;;;;;5029419;28;20186;-74
2023/03/19 03:34:38;;;;;;;6.53;4.93;;;11.60;1.00;;;;;;5031329;28;20502;-75
2023/03/19 03:37:03;;;;;;;5.40;4.57;;;11.60;1.00;;;;;;5030930;28;20212;-73
2023/03/19 03:39:29;;;;;;;8.97;5.40;;;11.60;1.00;;;;;;5028897;28;20456;-73
2023/03/19 03:41:55;;;;;;;8.50;4.80;;;11.40;1.00;;;;;;5030583;28;20256;-73
2023/03/19 03:44:20;;;;;;;7.57;5.43;;;11.50;1.00;;;;;;5030620;28;20214;-73
2023/03/19 03:46:46;;;;;;;6.87;5.10;;;11.60;1.00;;;;;;5031042;28;20217;-73
2023/03/19 03:49:12;;;;;;;11.23;4.90;;;11.60;1.00;;;;;;5030838;28;20178;-74
2023/03/19 03:51:37;;;;;;;10.20;4.60;;;11.60;1.00;;;;;;5030725;28;20744;-73
2023/03/19 03:54:03;;;;;;;8.60;5.17;;;11.60;1.00;;;;;;5030636;28;20484;-73
2023/03/19 03:56:28;;;;;;;5.10;4.60;;;11.60;1.00;;;;;;5030831;28;20182;-74
2023/03/19 03:58:55;;;;;;;7.10;4.73;;;11.60;1.00;;;;;;5030422;28;20178;-74
2023/03/19 04:01:21;;;;;;;7.67;4.50;;;11.60;1.00;;;;;;5028974;28;20856;-74
2023/03/19 04:03:47;;;;;;;6.67;4.20;;;11.70;1.00;;;;;;5029730;28;21199;-73
2023/03/19 04:06:18;;;;;;;7.30;5.00;;;11.70;1.00;;;;;;5031045;28;20494;-73
2023/03/19 04:08:44;;;;;;;9.57;4.63;;;11.80;1.00;;;;;;5028598;28;20273;-74
2023/03/19 04:11:10;;;;;;;6.53;4.43;;;11.80;1.00;;;;;;5029486;28;20455;-74
2023/03/19 04:13:36;;;;;;;7.13;4.80;;;11.80;1.00;;;;;;5021061;28;20461;-73
2023/03/19 04:16:06;;;;;;;8.80;5.13;;;11.80;1.00;;;;;;5030901;28;20212;-73
2023/03/19 04:18:32;;;;;;;7.83;5.10;;;11.80;1.00;;;;;;5029958;28;20285;-74
2023/03/19 04:20:58;;;;;;;9.57;4.40;;;11.80;1.00;;;;;;5030408;28;20547;-75
2023/03/19 04:23:24;;;;;;;5.90;3.87;;;11.80;1.00;;;;;;5030029;28;20212;-74
2023/03/19 04:25:50;;;;;;;7.43;4.50;;;11.70;1.00;;;;;;5028620;28;20251;-73
2023/03/19 04:28:15;;;;;;;9.67;5.10;;;11.80;1.00;;;;;;5029772;28;20437;-73
2023/03/19 04:30:42;;;;;;;6.20;4.27;;;11.80;1.00;;;;;;5028776;28;20190;-74
2023/03/19 04:33:08;;;;;;;7.07;4.40;;;11.80;1.00;;;;;;5030197;28;20292;-74
2023/03/19 04:35:33;;;;;;;6.10;4.17;;;11.80;1.00;;;;;;5028799;28;20527;-74
2023/03/19 04:37:59;;;;;;;6.20;4.20;;;11.80;1.00;;;;;;5030035;28;20659;-73
2023/03/19 04:40:24;;;;;;;8.57;4.30;;;11.80;1.00;;;;;;5028632;28;20561;-76
2023/03/19 04:42:50;;;;;;;7.33;4.30;;;11.80;1.00;;;;;;5028480;28;20197;-73
2023/03/19 04:45:16;;;;;;;8.70;4.60;;;11.80;1.00;;;;;;5028841;28;20716;-74
2023/03/19 04:47:41;;;;;;;6.13;3.90;;;11.80;1.00;;;;;;5027596;28;20215;-75
2023/03/19 04:50:08;;;;;;;5.53;4.20;;;11.80;1.00;;;;;;5029264;28;20192;-74
2023/03/19 04:52:34;;;;;;;9.27;4.53;;;11.90;1.00;;;;;;5036968;28;20180;-74
2023/03/19 04:54:59;;;;;;;9.53;4.53;;;11.90;1.00;;;;;;5028880;28;20464;-73
2023/03/19 04:57:25;;;;;;;8.00;4.30;;;12.00;1.00;;;;;;5028692;28;20203;-73
2023/03/19 04:59:51;;;;;;;7.70;4.10;;;12.00;1.00;;;;;;5028843;28;20186;-74
2023/03/19 05:02:17;;;;;;;5.87;4.27;;;12.00;1.00;;;;;;5029547;28;20498;-73
2023/03/19 05:04:42;;;;;;;7.30;4.00;;;12.00;1.00;;;;;;5029600;28;20364;-73
2023/03/19 05:07:08;;;;;;;6.33;4.13;;;12.00;1.00;;;;;;5027983;28;20556;-73
2023/03/19 05:09:33;;;;;;;6.87;4.40;;;12.10;1.00;;;;;;5026902;28;20196;-74
2023/03/19 05:11:58;;;;;;;6.27;4.40;;;12.00;1.00;;;;;;5028664;28;20182;-73
2023/03/19 05:14:24;;;;;;;5.10;4.13;;;12.00;1.00;;;;;;5027934;28;20205;-75
2023/03/19 05:16:50;;;;;;;6.70;4.07;;;12.00;1.00;;;;;;5028574;28;20186;-73
2023/03/19 05:19:16;;;;;;;6.97;4.03;;;11.90;1.00;;;;;;5028808;28;20672;-74
2023/03/19 05:21:41;;;;;;;5.90;4.60;;;11.90;1.00;;;;;;5028326;28;20478;-74
2023/03/19 05:24:07;;;;;;;11.37;4.23;;;11.90;1.00;;;;;;5029577;28;20205;-74
2023/03/19 05:26:32;;;;;;;6.43;4.30;;;11.90;1.00;;;;;;5026698;28;20205;-73
2023/03/19 05:28:58;;;;;;;5.30;4.00;;;11.90;1.00;;;;;;5027235;28;20212;-74
2023/03/19 05:31:23;;;;;;;8.17;4.47;;;11.90;1.00;;;;;;5028714;28;20189;-74
2023/03/19 05:33:49;;;;;;;7.30;4.50;;;11.90;1.00;;;;;;5026422;28;20209;-73
2023/03/19 05:36:15;;;;;;;7.20;4.57;;;11.80;1.00;;;;;;5027512;28;20192;-74
2023/03/19 05:38:41;;;;;;;5.90;4.87;;;11.80;1.00;;;;;;5027803;28;20190;-74
2023/03/19 05:41:07;;;;;;;6.63;4.33;;;11.80;1.00;;;;;;5025945;28;20467;-73
2023/03/19 05:43:32;;;;;;;6.43;4.10;;;11.80;1.00;;;;;;5028014;28;20209;-73
2023/03/19 05:45:58;;;;;;;5.63;4.40;;;11.90;1.00;;;;;;5028458;28;20182;-74
2023/03/19 05:48:24;;;;;;;7.70;4.27;;;11.90;1.00;;;;;;5028029;28;20269;-73
2023/03/19 05:50:51;;;;;;;10.03;5.03;;;11.90;1.00;;;;;;5027107;28;20206;-75
2023/03/19 05:53:18;;;;;;;7.00;4.10;;;11.90;1.00;;;;;;5028424;28;20796;-73
2023/03/19 05:55:43;;;;;;;7.00;4.00;;;12.00;1.00;;;;;;5026239;28;20433;-74
2023/03/19 05:58:09;;;;;;;7.33;4.17;;;12.00;1.00;;;;;;5027947;28;20439;-73
2023/03/19 06:00:35;;;;;;;5.40;4.00;;;12.00;1.00;;;;;;5026078;28;21093;-73
2023/03/19 06:03:01;;;;;;;6.50;4.60;;;12.00;1.00;;;;;;5027124;28;20186;-74
2023/03/19 06:05:26;;;;;;;6.83;4.57;;;12.10;1.00;;;;;;5026859;28;20433;-74
2023/03/19 06:07:52;;;;;;;4.97;4.30;;;12.10;1.00;;;;;;5025397;28;20233;-73
2023/03/19 06:10:18;;;;;;;6.67;4.37;;;12.10;1.00;;;;;;5026658;28;20288;-73
2023/03/19 06:12:43;;;;;;;6.87;4.50;;;12.10;1.00;;;;;;5028442;28;20771;-73
2023/03/19 06:15:09;;;;;;;6.40;3.70;;;12.10;1.00;;;;;;5042580;22;20233;-74
2023/03/19 06:17:36;;;;;;;8.63;4.63;;;12.10;1.00;;;;;;5027574;28;20177;-72
2023/03/19 06:20:02;;;;;;;5.43;4.40;;;12.10;1.00;;;;;;5028060;28;20440;-74
2023/03/19 06:22:27;;;;;;;5.70;3.90;;;12.10;1.00;;;;;;5027521;28;20464;-73
2023/03/19 06:24:53;;;;;;;6.03;4.20;;;12.10;1.00;;;;;;5028080;28;20449;-74
2023/03/19 06:27:18;;;;;;;9.10;5.03;;;12.20;1.00;;;;;;5028794;28;20205;-74
2023/03/19 06:29:44;;;;;;;4.60;3.70;;;12.20;1.00;;;;;;5027383;28;20556;-73
2023/03/19 06:32:10;;;;;;;5.90;3.90;;;12.20;1.00;;;;;;5026053;28;20204;-74
2023/03/19 06:34:35;;;;;;;11.47;4.30;;;12.20;1.00;;;;;;5028194;28;20201;-71
2023/03/19 06:37:01;;;;;;;5.73;3.93;;;12.30;1.00;;;;;;5027566;28;20197;-74
2023/03/19 06:39:26;;;;;;;7.70;4.20;;;12.30;1.00;;;;;;5027256;28;20221;-74
2023/03/19 06:41:52;;;;;;;7.40;4.23;;;12.30;1.00;;;;;;5026864;28;20247;-74
2023/03/19 06:44:18;;;;;;;9.70;5.00;;;12.40;1.00;;;;;;5028796;28;20203;-73
2023/03/19 06:46:43;;;;;;;9.00;4.13;;;12.50;1.00;;;;;;5026321;28;20209;-74
2023/03/19 06:49:09;;;;;;;6.77;4.47;;;12.60;1.00;;;;;;5025840;28;20591;-74
2023/03/19 06:51:35;;;;;;;7.43;4.37;;;12.70;1.00;;;;;;5026198;28;20276;-74
2023/03/19 06:54:00;;;;;;;10.00;4.20;;;12.80;1.00;;;;;;5027129;28;20680;-74
2023/03/19 06:56:26;;;;;;;5.80;4.33;;;12.80;1.00;;;;;;5026945;28;20189;-74
2023/03/19 06:58:51;;;;;;;8.97;5.17;;;12.90;1.00;;;;;;5025119;28;20276;-74
2023/03/19 07:01:18;;;;;;;14.70;8.53;;;13.00;1.00;;;;;;5027614;28;20184;-74
2023/03/19 07:03:43;;;;;;;20.00;10.23;;;13.10;1.00;;;;;;5026206;28;20210;-76
2023/03/19 07:06:09;;;;;;;25.53;13.23;;;13.20;1.00;;;;;;5026635;28;20464;-74
2023/03/19 07:08:34;;;;;;;24.30;12.40;;;13.20;1.00;;;;;;5025939;28;20644;-76
2023/03/19 07:11:05;;;;;;;23.43;12.90;;;13.20;1.00;;;;;;5027377;28;20652;-73
2023/03/19 07:13:31;;;;;;;21.90;13.60;;;13.20;1.00;;;;;;5028334;28;20843;-73
2023/03/19 07:15:57;;;;;;;19.70;12.87;;;13.20;1.00;;;;;;5042610;28;20457;-73
2023/03/19 07:18:23;;;;;;;13.70;10.00;;;13.20;1.00;;;;;;5027420;28;20436;-74
2023/03/19 07:20:48;;;;;;;18.00;10.07;;;13.20;1.00;;;;;;5026491;28;20561;-73
2023/03/19 07:23:14;;;;;;;10.90;5.50;;;13.30;1.00;;;;;;5028872;28;20551;-73
2023/03/19 07:25:40;;;;;;;7.90;5.83;;;13.30;1.00;;;;;;5026850;28;20206;-72
2023/03/19 07:28:06;;;;;;;9.60;6.40;;;13.50;1.00;;;;;;5028163;28;20220;-73
2023/03/19 07:30:31;;;;;;;7.33;5.20;;;13.60;1.00;;;;;;5024874;28;20587;-73
2023/03/19 07:32:57;;;;;;;7.20;4.10;;;13.70;1.00;;;;;;5026126;28;20190;-72
2023/03/19 07:35:23;;;;;;;6.63;4.30;;;13.90;1.00;;;;;;5028274;28;20232;-73
2023/03/19 07:37:48;;;;;;;6.80;5.37;;;14.00;1.00;;;;;;5028982;28;20196;-73
2023/03/19 07:40:14;;;;;;;11.73;7.17;;;14.10;1.00;;;;;;5030460;28;20699;-74
2023/03/19 07:42:40;;;;;;;8.30;5.50;;;14.30;1.00;;;;;;5036329;28;20200;-70
2023/03/19 07:45:06;;;;;;;8.67;5.93;;;14.40;1.00;;;;;;5029735;28;20212;-72
2023/03/19 07:47:31;;;;;;;8.37;5.73;;;14.50;1.00;;;;;;5030307;28;20911;-73
2023/03/19 07:49:57;;;;;;;8.40;4.67;;;14.60;1.00;;;;;;5031242;28;20421;-73
2023/03/19 07:52:24;;;;;;;7.63;3.73;;;14.90;1.00;;;;;;5032378;28;20191;-73
2023/03/19 07:54:49;;;;;;;5.10;3.70;;;15.00;1.00;;;;;;5031325;28;20209;-73
2023/03/19 07:57:15;;;;;;;6.43;3.50;;;15.10;1.00;;;;;;5030274;28;20452;-73
2023/03/19 07:59:41;;;;;;;7.07;4.00;;;15.00;1.00;;;;;;5027861;28;20263;-70
2023/03/19 08:02:12;;;;;;;5.90;3.90;;;15.00;1.00;;;;;;5030836;28;20217;-72
2023/03/19 08:04:38;;;;;;;5.23;3.73;;;14.80;1.00;;;;;;5031367;28;20587;-73
2023/03/19 08:07:03;;;;;;;5.63;3.80;;;14.70;1.00;;;;;;5030204;28;20464;-73
2023/03/19 08:09:29;;;;;;;4.30;3.50;;;14.80;1.00;;;;;;5028908;28;20444;-73
2023/03/19 08:11:55;;;;;;;5.90;3.70;;;14.90;1.00;;;;;;5030563;28;20304;-73
2023/03/19 08:14:21;;;;;;;4.87;3.70;;;15.20;1.00;;;;;;5031138;28;20205;-73
2023/03/19 08:16:47;;;;;;;6.03;3.80;;;15.40;1.00;;;;;;5029353;28;20213;-73
2023/03/19 08:19:13;;;;;;;9.63;4.40;;;15.50;1.00;;;;;;5031383;28;20439;-73
2023/03/19 08:21:39;;;;;;;8.00;4.60;;;15.70;1.00;;;;;;5025598;28;20448;-73
2023/03/19 08:24:04;;;;;;;7.73;3.80;;;15.80;1.00;;;;;;5030750;28;20580;-74
2023/03/19 08:26:31;;;;;;;6.03;3.57;;;15.90;1.00;;;;;;5030766;28;20209;-72
2023/03/19 08:28:57;;;;;;;8.17;3.80;;;15.80;1.00;;;;;;5025514;28;20276;-71
2023/03/19 08:31:23;;;;;;;7.30;4.13;;;16.20;1.00;;;;;;5021746;28;20432;-73
2023/03/19 08:33:49;;;;;;;6.00;4.00;;;16.50;1.00;;;;;;5027609;28;20835;-74
2023/03/19 08:36:14;;;;;;;4.63;3.57;;;17.00;1.00;;;;;;5026403;28;20178;-73
2023/03/19 08:38:41;;;;;;;5.13;4.10;;;17.70;1.00;;;;;;5028708;28;20255;-73
2023/03/19 08:41:07;;;;;;;8.47;4.30;;;18.40;1.00;;;;;;5026147;28;20181;-73
2023/03/19 08:43:35;;;;;;;6.67;4.17;;;19.30;1.00;;;;;;5024758;28;20436;-74
2023/03/19 08:46:01;;;;;;;6.20;4.00;;;20.50;1.00;;;;;;5029870;28;20511;-73
2023/03/19 08:48:27;;;;;;;5.37;3.80;;;21.40;1.00;;;;;;5025456;28;20530;-73
2023/03/19 08:51:01;;;;;;;5.63;4.07;;;22.00;1.00;;;;;;5027175;28;20197;-73
2023/03/19 08:53:27;;;;;;;7.03;4.20;;;23.00;1.00;;;;;;5030760;28;20260;-73
2023/03/19 08:55:55;;;;;;;5.57;3.72;;;23.80;1.00;;;;;;5028111;28;20437;-73
2023/03/19 08:58:21;;;;;;;5.30;3.57;;;23.60;1.00;;;;;;5029966;28;20185;-73
2023/03/19 09:00:48;;;;;;;6.63;3.80;;;23.10;1.00;;;;;;5028207;28;20976;-73
2023/03/19 09:03:15;;;;;;;5.50;3.57;;;22.90;1.00;;;;;;5030717;28;20462;-72
2023/03/19 09:05:40;;;;;;;6.50;3.87;;;23.50;1.00;;;;;;5028846;28;20460;-73
2023/03/19 09:08:07;;;;;;;8.13;3.70;;;24.00;1.00;;;;;;5027702;28;20466;-73
2023/03/19 09:10:32;;;;;;;5.87;3.80;;;24.90;1.00;;;;;;5030224;28;20556;-73
2023/03/19 09:12:58;;;;;;;5.23;3.60;;;25.40;1.00;;;;;;5027802;28;20185;-73
2023/03/19 09:15:24;;;;;;;7.63;4.00;;;26.10;1.00;;;;;;5028109;28;20212;-73
2023/03/19 09:17:50;;;;;;;6.63;3.70;;;27.50;1.00;;;;;;5027667;28;20307;-74
2023/03/19 09:20:16;;;;;;;5.93;3.80;;;27.40;1.00;;;;;;5028243;28;20192;-73
2023/03/19 09:22:42;;;;;;;6.60;3.83;;;27.80;1.00;;;;;;5028776;28;20555;-74
2023/03/19 09:25:07;;;;;;;6.60;3.40;;;27.10;1.00;;;;;;5027638;28;20200;-74
2023/03/19 09:27:33;;;;;;;5.55;3.47;;;27.40;1.00;;;;;;5028275;28;20220;-74
2023/03/19 09:29:59;;;;;;;6.68;4.32;;;28.40;1.00;;;;;;5027163;28;20191;-73
2023/03/19 09:32:24;;;;;;;6.03;3.33;;;29.20;1.00;;;;;;5027820;28;20671;-74
2023/03/19 09:34:50;;;;;;;6.93;4.03;;;28.40;1.00;;;;;;5029352;28;20213;-74
2023/03/19 09:37:15;;;;;;;7.28;4.10;;;27.80;1.00;;;;;;5027246;28;20188;-73
2023/03/19 09:39:41;;;;;;;5.55;4.10;;;27.40;1.00;;;;;;5025773;28;20289;-72
2023/03/19 09:42:44;;;;;;;7.53;4.10;;;28.30;1.00;;;;;;5027062;28;20186;-74
2023/03/19 09:45:17;;;;;;;4.80;3.60;;;28.20;1.00;;;;;;5008984;28;20714;-73
2023/03/19 09:47:46;;;;;;;9.10;3.70;;;27.70;1.00;;;;;;5024596;28;20340;-73
2023/03/19 09:50:21;;;;;;;5.82;3.78;;;27.10;1.00;;;;;;5020050;28;20185;-72
2023/03/19 09:52:52;;;;;;;6.67;3.60;;;26.60;1.00;;;;;;5029083;28;20180;-71
2023/03/19 09:55:27;;;;;;;5.33;3.53;;;25.70;1.00;;;;;;5023057;28;20212;-71
2023/03/19 09:57:55;;;;;;;5.20;3.60;;;24.20;1.00;;;;;;5027035;28;20199;-73
2023/03/19 10:00:21;;;;;;;6.43;3.57;;;25.40;1.00;;;;;;5024591;28;20208;-73
2023/03/19 10:02:53;;;;;;;4.80;3.30;;;27.30;1.00;;;;;;5028997;28;20185;-73
2023/03/19 10:05:29;;;;;;;5.45;3.53;;;28.80;1.00;;;;;;5019384;28;20291;-73
2023/03/19 10:08:04;;;;;;;4.80;3.00;;;28.70;1.00;;;;;;5020679;28;20193;-73
2023/03/19 10:10:50;;;;;;;4.45;3.15;;;27.30;1.00;;;;;;5018876;28;20246;-73
2023/03/19 10:13:57;;;;;;;5.05;3.22;;;26.90;1.00;;;;;;5019530;28;20285;-73
2023/03/19 10:16:25;;;;;;;6.67;3.50;;;27.10;1.00;;;;;;5021161;28;20220;-73
2023/03/19 10:18:56;;;;;;;4.77;3.70;;;26.20;1.00;;;;;;5025840;28;20204;-73
2023/03/19 10:21:36;;;;;;;5.47;3.17;;;26.60;1.00;;;;;;5026650;28;20185;-73
2023/03/19 10:24:21;;;;;;;8.73;3.80;;;27.00;1.00;;;;;;5027647;28;20280;-73
2023/03/19 10:26:48;;;;;;;6.60;3.50;;;27.60;1.00;;;;;;5026690;28;20520;-73
2023/03/19 10:29:18;;;;;;;6.15;3.50;;;27.30;1.00;;;;;;5025598;28;20516;-73
2023/03/19 10:32:12;;;;;;;6.35;3.20;;;28.40;1.00;;;;;;5022508;28;20675;-73
2023/03/19 10:34:44;;;;;;;4.95;3.20;;;29.30;1.00;;;;;;5022162;28;20349;-73
2023/03/19 10:37:25;;;;;;;5.35;3.30;;;27.60;1.00;;;;;;5024087;28;20196;-73
2023/03/19 10:39:55;;;;;;;5.65;3.70;;;27.90;1.00;;;;;;5025403;28;20207;-70
2023/03/19 10:42:37;;;;;;;5.05;3.50;;;28.50;1.00;;;;;;5027831;28;20216;-71
2023/03/19 10:45:22;;;;;;;7.75;3.60;;;29.60;1.00;;;;;;5026148;28;20343;-71
2023/03/19 10:47:47;;;;;;;4.90;3.40;;;31.10;1.00;;;;;;5031491;28;20571;-72
2023/03/19 10:50:26;;;;;;;6.38;3.53;;;31.80;1.00;;;;;;5026760;28;20192;-72
2023/03/19 10:53:05;;;;;;;4.90;3.58;;;32.90;1.00;;;;;;5025822;28;20268;-72
2023/03/19 10:55:31;;;;;;;7.00;3.63;;;32.00;1.00;;;;;;5027535;28;20211;-72
2023/03/19 10:58:15;;;;;;;5.30;3.60;;;30.90;1.00;;;;;;5025852;28;20276;-72
2023/03/19 11:00:45;;;;;;;4.53;2.78;;;30.30;1.00;;;;;;5026756;28;20188;-73
2023/03/19 11:03:32;;;;;;;6.72;2.90;;;28.60;1.00;;;;;;5025965;28;20198;-73
2023/03/19 11:06:22;;;;;;;5.45;3.38;;;26.50;1.00;;;;;;5026461;28;20572;-72
2023/03/19 11:09:01;;;;;;;4.37;3.10;;;25.00;1.00;;;;;;5026999;28;20197;-73
2023/03/19 11:11:44;;;;;;;11.65;3.22;;;26.50;1.00;;;;;;5026858;28;20180;-72
2023/03/19 11:14:18;;;;;;;4.63;3.10;;;29.10;1.00;;;;;;5029696;28;20217;-72
2023/03/19 11:16:57;;;;;;;7.53;3.28;;;30.60;1.00;;;;;;5031021;28;20199;-72
2023/03/19 11:19:29;;;;;;;4.88;3.50;;;31.00;1.00;;;;;;5023331;28;20647;-71
2023/03/19 11:22:08;;;;;;;5.43;3.20;;;31.30;1.00;;;;;;5033248;28;20185;-72
2023/03/19 11:24:41;;;;;;;5.47;3.03;;;28.90;1.00;;;;;;5029860;28;20228;-72
2023/03/19 11:27:08;;;;;;;5.63;3.20;;;27.00;1.00;;;;;;5031003;28;20255;-72
2023/03/19 11:29:42;;;;;;;5.80;3.43;;;25.40;1.00;;;;;;5029529;28;20177;-72
2023/03/19 11:32:37;;;;;;;7.03;3.30;;;25.80;1.00;;;;;;5031495;28;20239;-72
2023/03/19 11:35:27;;;;;;;6.07;3.07;;;27.00;1.00;;;;;;5030498;28;20205;-73
2023/03/19 11:38:02;;;;;;;5.17;3.60;;;28.20;1.00;;;;;;5029342;28;20189;-70
2023/03/19 11:40:41;;;;;;;6.00;3.33;;;27.20;1.00;;;;;;5029289;28;20188;-72
2023/03/19 11:43:31;;;;;;;5.60;3.30;;;26.10;1.00;;;;;;5029939;28;20268;-72
2023/03/19 11:46:18;;;;;;;6.23;3.70;;;25.20;1.00;;;;;;5025863;28;20192;-73
2023/03/19 11:48:58;;;;;;;4.73;3.00;;;24.50;1.00;;;;;;5025516;28;20211;-72
2023/03/19 11:51:42;;;;;;;6.87;3.90;;;24.00;1.00;;;;;;5028402;28;20802;-72
2023/03/19 11:54:26;;;;;;;6.03;3.80;;;23.40;1.00;;;;;;5030142;28;20459;-72
2023/03/19 11:57:01;;;;;;;6.30;3.23;;;23.00;1.00;;;;;;5026619;28;20961;-73
2023/03/19 11:59:41;;;;;;;7.03;3.47;;;22.60;1.00;;;;;;5028655;28;20518;-72
2023/03/19 12:02:39;;;;;;;5.60;3.63;;;22.40;1.00;;;;;;5028691;28;20473;-72
2023/03/19 12:05:26;;;;;;;7.33;3.90;;;22.20;1.00;;;;;;5026593;28;20550;-72
2023/03/19 12:08:01;;;;;;;6.90;3.03;;;21.50;1.00;;;;;;5029153;28;20467;-71
2023/03/19 12:11:02;;;;;;;4.90;3.27;;;21.40;1.00;;;;;;5028599;28;20435;-71
2023/03/19 12:13:36;;;;;;;6.33;3.20;;;20.80;1.00;;;;;;5029906;28;20432;-72
2023/03/19 12:16:30;;;;;;;6.13;3.30;;;20.70;1.00;;;;;;5099040;22;21034;-73
2023/03/19 12:19:13;;;;;;;4.87;3.30;;;20.50;1.00;;;;;;5047283;28;20442;-70
2023/03/19 12:22:02;;;;;;;4.80;3.00;;;20.40;1.00;;;;;;5049249;28;20501;-74
2023/03/19 12:24:38;;;;;;;5.20;3.20;;;20.30;1.00;;;;;;5047838;28;20439;-73
2023/03/19 12:27:37;;;;;;;6.20;3.20;;;20.60;1.00;;;;;;5048652;28;20474;-72
2023/03/19 12:30:20;;;;;;;5.57;2.80;;;21.20;1.00;;;;;;5049143;28;20467;-74
2023/03/19 12:33:07;;;;;;;4.03;2.87;;;22.40;1.00;;;;;;5051192;28;20501;-73
2023/03/19 12:35:34;;;;;;;6.60;3.17;;;23.80;1.00;;;;;;5049704;28;20477;-73
2023/03/19 12:38:30;;;;;;;4.80;2.90;;;23.60;1.00;;;;;;5048309;28;20522;-73
2023/03/19 12:41:13;;;;;;;5.90;3.23;;;23.00;1.00;;;;;;5047396;28;20473;-73
2023/03/19 12:43:54;;;;;;;4.83;2.50;;;22.80;1.00;;;;;;5047990;28;20987;-74
2023/03/19 12:46:35;;;;;;;7.27;3.10;;;21.80;1.00;;;;;;5048265;28;20519;-73
2023/03/19 12:49:05;;;;;;;5.63;3.03;;;21.00;1.00;;;;;;5047911;28;21035;-74
2023/03/19 12:51:35;;;;;;;4.90;2.90;;;20.30;1.00;;;;;;5049044;28;20427;-74
2023/03/19 12:54:11;;;;;;;8.63;3.30;;;19.30;1.00;;;;;;5049110;28;20462;-73
2023/03/19 12:56:54;;;;;;;5.80;3.23;;;19.30;1.00;;;;;;5045815;28;20500;-74
2023/03/19 12:59:46;;;;;;;5.63;3.60;;;19.20;1.00;;;;;;5049774;28;20431;-73
2023/03/19 13:02:21;;;;;;;5.60;3.20;;;18.90;1.00;;;;;;5050507;28;20424;-73
2023/03/19 13:04:56;;;;;;;9.40;4.00;;;18.70;1.00;;;;;;5049346;28;20537;-73
2023/03/19 13:07:51;;;;;;;5.03;3.37;;;18.80;1.00;;;;;;5050443;28;20459;-73